Terminal Aerodrome Forecast
Issued by NWS Cleveland, OH

Home | Current Version | Previous Version | Graphics & Text | Print | Product List | Glossary On
Versions: 1 2 3 4 5 6 7 8 9 10 11 12 13 14 15 16
000
FTUS41 KCLE 272332
TAFERI
TAF
KERI 272332Z 2800/2824 06009KT P6SM OVC250
     FM281100 07010KT P6SM OVC080
     FM281300 07015G25KT P6SM OVC080
     FM281600 07015G25KT P6SM VCSH OVC015
     FM282000 06020G25KT 4SM -SHRA BR OVC007
     FM282200 06020G25KT P6SM OVC007=

USA.gov is the U.S. government's official web portal to all federal, state and local government web resources and services.